Contoocook, New Hampshire
Current Conditions -  °F | °C
As of 10:24 AM on Thursday 23 Oct 2014 (Local Time) from KCON Reporting Station
Heavy Rain Heavy Rain  
Wind Chill: 43°   Ceiling: 1700
Heat Index: 48°   Visibility: 1.7mi
Dew Point: 48°   Wind: 10mph
Humidity: 100%   Direction: 10°N
Pressure: 29.76"   Gusts: NA
Location:  43.22°N, 71.71°W
Report Text: KCON 231424Z AUTO 01009KT 1 3/4SM +RA BR BKN017 OVC023 09/09 A2976 RMK AO2 P0009 T00890089
Loading
Personal Weather Stations






























Interactive Weather Map
Tropical Storm Tracking
New forecast layout! Learn more

10-Day Weather Forecast

Advertisements
Track Severe Weather on mobile